Time;durP1;ratioP1;P1;durP2;ratioP2;P2;SDS_P1;SDS_P2;PMS_P1;PMS_P2;Temp;Humidity;BMP_temperature;BMP_pressure;BME280_temperature;BME280_humidity;BME280_pressure;Samples;Min_cycle;Max_cycle;Signal;HPM_P1;HPM_P2
2023/06/26 03:01:21;;;;;;;11.02;1.75;;;;;;;13.57;72.43;100864.34;5115878;22;20192;-43
2023/06/26 03:03:48;;;;;;;4.35;1.20;;;;;;;13.56;72.60;100865.50;5031138;28;20053;-43
2023/06/26 03:06:15;;;;;;;6.13;1.13;;;;;;;13.54;72.95;100867.84;5014127;28;20479;-47
2023/06/26 03:08:43;;;;;;;5.07;1.27;;;;;;;13.55;73.07;100869.47;5031550;28;20056;-44
2023/06/26 03:11:10;;;;;;;6.38;1.55;;;;;;;13.53;73.05;100866.22;5031768;28;20042;-44
2023/06/26 03:13:37;;;;;;;6.32;0.98;;;;;;;13.52;73.44;100864.63;5031112;28;20051;-44
2023/06/26 03:16:04;;;;;;;6.03;1.00;;;;;;;13.51;73.53;100873.31;5023834;28;20068;-44
2023/06/26 03:18:31;;;;;;;14.68;3.30;;;;;;;13.51;73.67;100863.00;5030940;28;20103;-44
2023/06/26 03:20:59;;;;;;;2.72;0.77;;;;;;;13.46;73.75;100866.06;5031204;28;20045;-45
2023/06/26 03:23:26;;;;;;;7.93;1.85;;;;;;;13.43;73.71;100861.22;5026100;28;20104;-44
2023/06/26 03:25:53;;;;;;;16.80;3.03;;;;;;;13.43;74.03;100861.22;5031443;28;20050;-43
2023/06/26 03:28:19;;;;;;;10.77;1.20;;;;;;;13.42;74.27;100856.84;5031141;28;20104;-44
2023/06/26 03:30:46;;;;;;;5.32;1.00;;;;;;;13.40;74.23;100859.16;5031202;28;20068;-43
2023/06/26 03:33:13;;;;;;;6.80;1.15;;;;;;;13.41;74.30;100866.34;5030948;28;20076;-44
2023/06/26 03:35:40;;;;;;;9.27;1.92;;;;;;;13.37;74.59;100871.00;5031046;28;20480;-44
2023/06/26 03:38:06;;;;;;;5.70;1.40;;;;;;;13.35;74.70;100865.00;5031118;28;20447;-43
2023/06/26 03:40:33;;;;;;;8.82;1.25;;;;;;;13.32;74.93;100868.50;5013162;28;20052;-47
2023/06/26 03:43:01;;;;;;;5.05;1.10;;;;;;;13.27;75.10;100875.16;5013117;28;20394;-43
2023/06/26 03:45:27;;;;;;;9.55;1.75;;;;;;;13.25;75.15;100874.72;5030967;28;20050;-43
2023/06/26 03:47:54;;;;;;;4.40;1.13;;;;;;;13.23;75.39;100879.84;5030885;28;20065;-45
2023/06/26 03:50:21;;;;;;;5.40;1.25;;;;;;;13.22;75.51;100874.63;5034973;28;20042;-44
2023/06/26 03:52:49;;;;;;;6.82;1.42;;;;;;;13.20;75.54;100876.97;5017137;28;20045;-46
2023/06/26 03:55:17;;;;;;;7.10;2.55;;;;;;;13.21;75.58;100881.38;5034618;28;20045;-45
2023/06/26 03:57:45;;;;;;;7.45;1.38;;;;;;;13.20;75.53;100891.69;5033414;28;20095;-43
2023/06/26 04:00:13;;;;;;;6.68;1.20;;;;;;;13.19;75.67;100872.56;5034754;28;20057;-46
2023/06/26 04:02:39;;;;;;;8.10;1.42;;;;;;;13.19;75.79;100883.69;5034674;28;20060;-45
2023/06/26 04:05:06;;;;;;;5.35;1.20;;;;;;;13.19;76.00;100878.13;5034776;28;20570;-45
2023/06/26 04:07:33;;;;;;;4.97;1.15;;;;;;;13.17;75.89;100891.56;5034647;28;20042;-44
2023/06/26 04:10:00;;;;;;;7.28;1.15;;;;;;;13.15;75.99;100886.38;5034752;28;20128;-45
2023/06/26 04:12:27;;;;;;;7.88;1.75;;;;;;;13.15;76.16;100889.16;5034037;28;20053;-44
2023/06/26 04:14:54;;;;;;;5.53;1.80;;;;;;;13.14;76.10;100887.53;5028708;28;20069;-43
2023/06/26 04:17:21;;;;;;;4.15;1.05;;;;;;;13.15;76.36;100893.91;5032970;28;20088;-44
2023/06/26 04:19:48;;;;;;;6.97;1.23;;;;;;;13.18;76.43;100898.75;5034638;28;20128;-43
2023/06/26 04:22:15;;;;;;;6.95;1.40;;;;;;;13.18;76.34;100893.19;5034148;28;20045;-45
2023/06/26 04:24:43;;;;;;;6.22;1.20;;;;;;;13.19;76.33;100906.72;5029422;28;20107;-45
2023/06/26 04:27:10;;;;;;;5.20;1.60;;;;;;;13.21;76.43;100900.84;5034240;28;20079;-44
2023/06/26 04:29:37;;;;;;;4.88;1.58;;;;;;;13.23;76.44;100904.06;5034114;28;20053;-44
2023/06/26 04:32:04;;;;;;;5.30;1.38;;;;;;;13.23;76.51;100913.19;5016817;28;20076;-43
2023/06/26 04:34:35;;;;;;;8.48;1.10;;;;;;;13.25;76.51;100916.44;5034102;28;20045;-44
2023/06/26 04:37:04;;;;;;;7.18;1.92;;;;;;;13.24;76.59;100913.97;5034644;28;20060;-44
2023/06/26 04:39:30;;;;;;;5.43;0.98;;;;;;;13.24;76.70;100914.81;5033898;28;20231;-43
2023/06/26 04:41:57;;;;;;;7.70;1.58;;;;;;;13.25;76.65;100922.00;5034713;28;20454;-43
2023/06/26 04:44:24;;;;;;;9.15;1.25;;;;;;;13.26;76.71;100925.59;5033950;28;20057;-44
2023/06/26 04:46:51;;;;;;;10.85;1.40;;;;;;;13.26;76.81;100925.59;5032502;28;20048;-44
2023/06/26 04:49:19;;;;;;;7.57;1.45;;;;;;;13.28;76.86;100932.41;5033952;28;20400;-44
2023/06/26 04:51:48;;;;;;;5.70;1.30;;;;;;;13.28;76.79;100935.19;5033983;28;20378;-43
2023/06/26 04:54:15;;;;;;;4.95;1.52;;;;;;;13.29;76.98;100944.34;5034034;28;20056;-43
2023/06/26 04:56:43;;;;;;;6.88;1.17;;;;;;;13.28;77.12;100945.47;5034056;28;20057;-44
2023/06/26 04:59:13;;;;;;;6.20;1.45;;;;;;;13.30;77.00;100948.69;5033918;28;20057;-44
2023/06/26 05:01:40;;;;;;;5.68;1.52;;;;;;;13.31;76.96;100950.34;5032279;28;20096;-46
2023/06/26 05:04:07;;;;;;;5.20;1.00;;;;;;;13.31;77.07;100951.16;5016031;28;20042;-44
2023/06/26 05:06:34;;;;;;;9.80;2.10;;;;;;;13.33;77.10;100956.34;5033633;28;20041;-45
2023/06/26 05:09:00;;;;;;;6.72;1.20;;;;;;;13.34;77.01;100955.97;5033468;28;20041;-44
2023/06/26 05:11:27;;;;;;;12.73;2.70;;;;;;;13.38;77.11;100947.72;5033805;28;20057;-43
2023/06/26 05:13:54;;;;;;;6.53;1.10;;;;;;;13.38;77.21;100959.66;5033343;28;20133;-44
2023/06/26 05:16:21;;;;;;;7.43;1.25;;;;;;;13.39;77.27;100960.47;5008735;28;20468;-43
2023/06/26 05:18:48;;;;;;;6.88;1.05;;;;;;;13.41;77.25;100963.69;5033013;28;20042;-44
2023/06/26 05:21:16;;;;;;;4.05;1.20;;;;;;;13.41;77.35;100963.69;5033370;28;20049;-43
2023/06/26 05:23:45;;;;;;;5.00;1.27;;;;;;;13.43;77.39;100964.13;5027811;28;20037;-43
2023/06/26 05:26:13;;;;;;;5.90;1.52;;;;;;;13.46;77.27;100971.75;5033421;28;20050;-43
2023/06/26 05:28:40;;;;;;;8.82;1.63;;;;;;;13.47;77.52;100965.03;5033310;28;20072;-48
2023/06/26 05:31:07;;;;;;;9.80;1.13;;;;;;;13.48;77.46;100969.44;5033255;28;20083;-45
2023/06/26 05:33:37;;;;;;;4.65;0.88;;;;;;;13.47;77.48;100972.56;5033239;28;20052;-47
2023/06/26 05:36:04;;;;;;;8.18;1.30;;;;;;;13.50;77.47;100972.69;5032975;28;20049;-47
2023/06/26 05:38:31;;;;;;;9.15;1.13;;;;;;;13.53;77.61;100974.72;5032785;28;20052;-48
2023/06/26 05:40:58;;;;;;;7.90;1.27;;;;;;;13.57;77.50;100975.63;5032855;28;20091;-47
2023/06/26 05:43:25;;;;;;;8.25;2.30;;;;;;;13.60;77.54;100979.66;5020131;28;20054;-46
2023/06/26 05:45:57;;;;;;;7.45;1.60;;;;;;;13.64;77.56;100978.56;5032957;28;20079;-44
2023/06/26 05:48:24;;;;;;;7.30;1.95;;;;;;;13.67;77.59;100977.84;5020204;28;20083;-43
2023/06/26 05:50:51;;;;;;;4.60;0.93;;;;;;;13.70;77.58;100977.16;5032717;28;20140;-44
2023/06/26 05:53:18;;;;;;;9.15;1.17;;;;;;;13.77;77.58;100982.06;5032441;28;20049;-45
2023/06/26 05:55:45;;;;;;;4.00;0.90;;;;;;;13.80;77.59;100976.59;5015076;28;20091;-47
2023/06/26 05:58:12;;;;;;;5.50;1.02;;;;;;;13.86;77.33;100979.91;5032493;28;20618;-44
2023/06/26 06:00:40;;;;;;;2.72;1.13;;;;;;;13.90;77.48;100981.59;5032875;28;20111;-45
2023/06/26 06:03:10;;;;;;;3.80;0.90;;;;;;;13.95;77.60;100975.75;5027822;28;20053;-44
2023/06/26 06:05:38;;;;;;;11.13;1.27;;;;;;;14.01;77.52;100974.31;5012863;28;20060;-44
2023/06/26 06:08:05;;;;;;;5.03;1.17;;;;;;;14.11;77.45;100972.13;5012803;28;20438;-45
2023/06/26 06:10:31;;;;;;;8.20;1.02;;;;;;;14.27;77.32;100973.69;5012571;28;20037;-44
2023/06/26 06:12:58;;;;;;;6.53;1.10;;;;;;;14.48;77.08;100984.53;5012655;28;20050;-45
2023/06/26 06:15:25;;;;;;;3.85;1.00;;;;;;;14.66;76.80;100970.97;5012541;28;20073;-45
2023/06/26 06:17:54;;;;;;;7.47;1.20;;;;;;;14.82;76.54;100980.06;5012536;28;20526;-44
2023/06/26 06:20:21;;;;;;;9.60;1.15;;;;;;;14.89;76.11;100969.03;5012354;28;20129;-43
2023/06/26 06:22:48;;;;;;;6.15;1.27;;;;;;;14.93;76.13;100984.63;5012636;28;20065;-44
2023/06/26 06:25:15;;;;;;;3.95;0.90;;;;;;;14.99;76.01;100983.19;5012440;28;20046;-44
2023/06/26 06:27:43;;;;;;;10.50;1.67;;;;;;;15.05;75.71;100992.84;5012099;28;20619;-44
2023/06/26 06:30:10;;;;;;;11.50;1.25;;;;;;;15.10;75.63;100992.56;5012492;28;20033;-43
2023/06/26 06:32:38;;;;;;;11.23;1.52;;;;;;;15.15;75.57;100992.25;5012501;28;20131;-45
2023/06/26 06:35:09;;;;;;;4.60;1.50;;;;;;;15.20;75.36;100983.56;5012386;28;20045;-44
2023/06/26 06:37:38;;;;;;;7.03;1.35;;;;;;;15.25;75.31;100988.84;4995642;28;20049;-43
2023/06/26 06:40:06;;;;;;;4.93;1.17;;;;;;;15.29;75.10;100990.91;5011967;28;20399;-44
2023/06/26 06:42:33;;;;;;;7.85;2.13;;;;;;;15.30;74.99;101003.69;5012281;28;20045;-44
2023/06/26 06:45:02;;;;;;;7.03;1.83;;;;;;;15.31;74.92;101006.09;5011794;28;20065;-44
2023/06/26 06:47:29;;;;;;;9.43;1.20;;;;;;;15.35;74.89;101012.56;5012181;28;20129;-47
2023/06/26 06:50:03;;;;;;;6.47;1.33;;;;;;;15.39;74.78;101002.25;4999254;28;20054;-44
2023/06/26 06:52:30;;;;;;;7.10;1.15;;;;;;;15.53;74.86;101001.72;5011921;28;20120;-45
2023/06/26 06:55:05;;;;;;;4.57;1.13;;;;;;;15.68;74.71;101009.97;5012029;28;20084;-44
2023/06/26 06:57:37;;;;;;;6.07;0.93;;;;;;;15.85;74.46;101011.44;5011942;28;20064;-45
2023/06/26 07:00:08;;;;;;;6.63;1.27;;;;;;;15.96;74.25;101018.00;5012013;28;20498;-44
2023/06/26 07:02:36;;;;;;;6.53;0.90;;;;;;;16.04;74.18;101014.16;5023911;28;20144;-46
2023/06/26 07:05:04;;;;;;;7.07;1.13;;;;;;;16.10;73.79;101026.59;5030940;28;20132;-44
2023/06/26 07:07:32;;;;;;;5.25;1.00;;;;;;;16.14;73.79;101030.25;5030235;28;20574;-44
2023/06/26 07:10:03;;;;;;;5.18;1.23;;;;;;;16.24;73.66;101034.38;5031425;28;20473;-43
2023/06/26 07:12:30;;;;;;;3.85;0.77;;;;;;;16.31;73.79;101032.50;5013581;28;20128;-44
2023/06/26 07:14:57;;;;;;;6.88;0.82;;;;;;;16.38;73.41;101038.22;5027333;28;20053;-47
2023/06/26 07:17:24;;;;;;;9.48;1.38;;;;;;;16.45;73.24;101032.72;5031095;28;20045;-46
2023/06/26 07:19:51;;;;;;;5.47;0.93;;;;;;;16.65;73.50;101041.00;5030771;28;20049;-44
2023/06/26 07:22:20;;;;;;;5.85;1.05;;;;;;;16.85;73.40;101042.44;5031279;28;20099;-45
2023/06/26 07:24:47;;;;;;;6.70;1.08;;;;;;;17.07;73.34;101047.13;5024591;28;20045;-44
2023/06/26 07:27:18;;;;;;;4.00;1.40;;;;;;;17.18;73.02;101042.47;5030600;28;20557;-44
2023/06/26 07:29:45;;;;;;;8.25;0.98;;;;;;;17.17;72.35;101052.03;5030910;28;20163;-44
2023/06/26 07:32:12;;;;;;;7.78;1.30;;;;;;;17.12;71.95;101032.81;5031174;28;20046;-44
2023/06/26 07:34:41;;;;;;;4.65;0.98;;;;;;;17.16;72.67;101044.00;5030772;28;20067;-44
2023/06/26 07:37:08;;;;;;;6.15;1.02;;;;;;;17.36;73.38;101053.84;5031086;28;20096;-45
2023/06/26 07:39:35;;;;;;;6.00;1.48;;;;;;;17.55;73.45;101051.66;5030644;28;20495;-44
2023/06/26 07:42:01;;;;;;;6.07;0.77;;;;;;;17.69;73.18;101044.59;5030824;28;20041;-43
2023/06/26 07:44:28;;;;;;;8.90;1.60;;;;;;;17.89;73.51;101038.41;5030997;28;20045;-45
2023/06/26 07:46:55;;;;;;;4.00;1.17;;;;;;;18.26;73.40;101055.09;5019675;28;20128;-44
2023/06/26 07:49:23;;;;;;;5.55;1.05;;;;;;;18.71;71.95;101057.41;5030873;28;20057;-44
2023/06/26 07:51:50;;;;;;;4.35;0.88;;;;;;;18.96;69.54;101063.13;5030347;28;20107;-45
2023/06/26 07:54:16;;;;;;;5.20;0.75;;;;;;;18.95;67.66;101066.31;5030973;28;20081;-45
2023/06/26 07:56:56;;;;;;;6.68;1.02;;;;;;;18.79;66.94;101056.25;5013386;28;20050;-47
2023/06/26 07:59:24;;;;;;;4.53;0.68;;;;;;;18.51;65.69;101058.88;5030770;28;20095;-44
2023/06/26 08:01:52;;;;;;;4.70;0.98;;;;;;;18.42;64.81;101066.81;5030211;28;20057;-44
2023/06/26 08:04:23;;;;;;;2.85;1.55;;;;;;;18.45;64.48;101066.03;5030657;28;20049;-46
2023/06/26 08:06:52;;;;;;;7.80;1.17;;;;;;;18.35;64.04;101072.34;5030853;28;20768;-44
2023/06/26 08:09:21;;;;;;;4.60;1.02;;;;;;;18.55;63.95;101056.09;5030266;28;20415;-45
2023/06/26 08:11:48;;;;;;;7.05;1.00;;;;;;;19.51;63.31;101072.16;5030620;28;20069;-44
2023/06/26 08:14:16;;;;;;;7.07;1.90;;;;;;;20.26;62.24;101084.28;5028822;28;20491;-45
2023/06/26 08:16:43;;;;;;;3.50;1.50;;;;;;;20.47;60.99;101079.44;5027439;28;20054;-45
2023/06/26 08:19:11;;;;;;;5.90;1.17;;;;;;;20.46;60.19;101079.84;5030683;28;20083;-46
2023/06/26 08:21:40;;;;;;;6.20;1.08;;;;;;;20.09;59.65;101071.00;5013264;28;20073;-45
2023/06/26 08:24:07;;;;;;;6.35;1.00;;;;;;;19.67;59.84;101078.19;5017951;28;20045;-47
2023/06/26 08:26:34;;;;;;;1.98;0.77;;;;;;;19.44;60.30;101083.38;5029655;28;20503;-47
2023/06/26 08:29:07;;;;;;;4.63;1.73;;;;;;;19.70;60.15;101079.41;5017731;28;20802;-43
2023/06/26 08:31:38;;;;;;;8.27;1.40;;;;;;;20.32;59.57;101079.88;5030497;28;20115;-45
2023/06/26 08:34:06;;;;;;;5.53;1.63;;;;;;;21.07;58.98;101087.75;5008014;28;20491;-44
2023/06/26 08:36:32;;;;;;;9.90;1.95;;;;;;;21.90;58.06;101086.88;5034365;28;20037;-44
2023/06/26 08:38:59;;;;;;;3.70;1.02;;;;;;;22.35;57.11;101096.19;5034309;28;20041;-47
2023/06/26 08:41:26;;;;;;;5.30;1.65;;;;;;;22.85;55.71;101090.84;5033755;28;20137;-44
2023/06/26 08:43:53;;;;;;;4.22;1.40;;;;;;;23.28;54.91;101091.16;5033668;28;20080;-42
2023/06/26 08:46:20;;;;;;;9.05;2.03;;;;;;;23.70;53.80;101084.13;5031146;28;20545;-46
2023/06/26 08:48:56;;;;;;;5.22;1.05;;;;;;;23.53;52.89;101097.31;5034010;28;20056;-41
2023/06/26 08:51:25;;;;;;;5.80;1.17;;;;;;;23.23;52.42;101083.94;5033740;28;20052;-42
2023/06/26 08:53:56;;;;;;;6.78;1.13;;;;;;;23.49;51.81;101086.03;5033999;28;20105;-43
2023/06/26 08:56:25;;;;;;;4.00;1.40;;;;;;;24.02;50.96;101084.41;5034016;28;20041;-42
2023/06/26 08:58:52;;;;;;;6.03;1.00;;;;;;;24.60;49.79;101092.31;5031039;28;20126;-42
2023/06/26 09:01:20;;;;;;;3.92;1.40;;;;;;;25.03;48.33;101088.69;5029608;28;20044;-43
2023/06/26 09:03:47;;;;;;;9.85;1.17;;;;;;;24.77;47.91;101096.88;5011453;28;20096;-45
2023/06/26 09:06:13;;;;;;;5.38;1.45;;;;;;;24.57;47.65;101087.53;5031205;28;20067;-43
2023/06/26 09:08:40;;;;;;;5.45;1.20;;;;;;;24.09;48.03;101087.97;5032571;28;20052;-42
2023/06/26 09:11:07;;;;;;;6.90;1.50;;;;;;;23.44;48.57;101091.34;5032310;28;20049;-44
2023/06/26 09:13:34;;;;;;;3.83;0.90;;;;;;;22.67;49.62;101091.06;5032210;28;20060;-42
2023/06/26 09:16:07;;;;;;;3.35;1.27;;;;;;;21.87;49.88;101093.34;5031524;28;20049;-42
2023/06/26 09:18:35;;;;;;;7.15;1.27;;;;;;;21.26;50.60;101091.28;5032136;28;20049;-44
2023/06/26 09:21:09;;;;;;;6.50;1.27;;;;;;;20.84;51.47;101087.38;5033730;28;20045;-44
2023/06/26 09:23:36;;;;;;;5.00;1.25;;;;;;;20.56;52.93;101088.28;5031682;28;20132;-43
2023/06/26 09:26:06;;;;;;;2.95;1.20;;;;;;;20.35;54.14;101087.50;5032756;28;20045;-42
2023/06/26 09:28:33;;;;;;;6.70;1.50;;;;;;;20.50;54.52;101097.50;5033204;28;20481;-44
2023/06/26 09:31:03;;;;;;;11.95;1.95;;;;;;;20.89;53.79;101089.78;5033215;28;20518;-42
2023/06/26 09:33:38;;;;;;;3.70;1.00;;;;;;;21.17;54.17;101097.34;5032318;28;20083;-42
2023/06/26 09:36:18;;;;;;;5.55;1.33;;;;;;;22.25;53.23;101092.25;5033065;28;20107;-43
2023/06/26 09:38:45;;;;;;;5.07;1.08;;;;;;;23.32;51.53;101103.22;5015510;28;20053;-43
2023/06/26 09:41:15;;;;;;;10.18;2.53;;;;;;;24.12;49.93;101106.91;5032890;28;20034;-42
2023/06/26 09:43:49;;;;;;;5.10;1.10;;;;;;;24.20;48.93;101099.91;5032134;28;20457;-42
2023/06/26 09:46:27;;;;;;;7.40;1.48;;;;;;;24.45;48.33;101105.16;5032356;28;20049;-43
2023/06/26 09:49:04;;;;;;;5.05;1.55;;;;;;;24.06;48.05;101100.13;5015149;28;20092;-45
2023/06/26 09:51:32;;;;;;;8.57;1.35;;;;;;;23.29;48.24;101102.03;5032563;28;20503;-42
2023/06/26 09:53:59;;;;;;;3.80;0.80;;;;;;;22.47;48.81;101089.22;5031634;28;20033;-42
2023/06/26 09:56:27;;;;;;;5.10;1.30;;;;;;;22.76;48.72;101104.69;5019640;28;20934;-42
2023/06/26 09:58:57;;;;;;;6.35;1.15;;;;;;;23.41;47.14;101100.69;5031521;28;20091;-43
2023/06/26 10:01:24;;;;;;;3.40;1.23;;;;;;;23.13;46.79;101101.03;5028499;28;20099;-42
2023/06/26 10:03:51;;;;;;;7.47;1.20;;;;;;;22.96;47.62;101105.66;5032289;28;20521;-42
2023/06/26 10:06:24;;;;;;;5.47;1.10;;;;;;;22.73;47.27;101111.16;5032462;28;20060;-43
2023/06/26 10:08:51;;;;;;;7.18;1.42;;;;;;;22.41;47.42;101109.44;5031511;28;20048;-42
2023/06/26 10:11:21;;;;;;;5.25;1.35;;;;;;;22.07;48.19;101114.16;5031903;28;20041;-42
2023/06/26 10:13:50;;;;;;;6.47;1.02;;;;;;;21.61;48.29;101113.63;5032557;28;20044;-42
2023/06/26 10:16:26;;;;;;;3.50;1.27;;;;;;;21.30;48.64;101108.97;5028012;28;20045;-45
2023/06/26 10:18:58;;;;;;;4.55;0.70;;;;;;;21.22;48.67;101114.63;5031130;28;20041;-42
2023/06/26 10:21:31;;;;;;;5.47;1.63;;;;;;;21.18;48.88;101119.47;5032352;28;20053;-42
2023/06/26 10:23:58;;;;;;;7.20;1.33;;;;;;;20.99;49.34;101121.94;5029013;28;20495;-42
2023/06/26 10:26:27;;;;;;;6.43;1.40;;;;;;;20.82;49.74;101112.31;5032208;28;20045;-42
2023/06/26 10:28:56;;;;;;;4.47;0.70;;;;;;;21.44;49.41;101123.00;5031205;28;20077;-42
2023/06/26 10:31:26;;;;;;;6.47;1.08;;;;;;;22.05;47.72;101127.88;5032038;28;20049;-42
2023/06/26 10:33:53;;;;;;;6.80;1.00;;;;;;;22.32;47.21;101130.84;5032024;28;20077;-43
2023/06/26 10:36:28;;;;;;;5.05;0.88;;;;;;;22.74;46.89;101118.44;5030678;28;20045;-43
2023/06/26 10:38:58;;;;;;;3.55;1.10;;;;;;;23.18;46.46;101121.13;4997651;28;20171;-45
2023/06/26 10:41:25;;;;;;;2.33;0.50;;;;;;;23.28;45.38;101130.69;4997138;28;20134;-46
2023/06/26 10:44:18;;;;;;;2.20;0.50;;;;;;;22.94;45.56;101136.34;4995684;28;20049;-43
2023/06/26 10:46:49;;;;;;;1.27;0.60;;;;;;;22.56;45.65;101154.47;4992145;28;20049;-44
2023/06/26 10:49:17;;;;;;;3.20;0.98;;;;;;;21.78;48.26;101169.09;4994983;28;21350;-43
2023/06/26 10:51:49;;;;;;;2.65;1.38;;;;;;;20.83;50.34;101175.06;4995124;28;20128;-42
2023/06/26 10:54:16;;;;;;;;;;;;;;;20.09;52.60;101175.84;4986613;28;20143;-41
2023/06/26 10:56:50;;;;;;;3.13;0.80;;;;;;;19.84;53.48;101170.16;5031781;28;19990;-42
2023/06/26 10:59:21;;;;;;;9.00;1.50;;;;;;;19.68;54.02;101169.72;5029545;28;20053;-44
2023/06/26 11:02:04;;;;;;;3.38;0.77;;;;;;;19.62;54.74;101173.31;5013897;28;20085;-45
2023/06/26 11:04:52;;;;;;;4.20;0.85;;;;;;;19.49;55.25;101172.84;5031590;28;20049;-42
2023/06/26 11:07:22;;;;;;;3.15;0.77;;;;;;;19.51;55.69;101173.28;5031383;28;20153;-43
2023/06/26 11:10:04;;;;;;;7.45;1.00;;;;;;;19.63;56.24;101175.72;5030259;28;20045;-43
2023/06/26 11:12:42;;;;;;;4.90;0.75;;;;;;;19.85;55.96;101168.97;5013796;28;20049;-45
2023/06/26 11:15:11;;;;;;;3.75;1.10;;;;;;;20.15;56.25;101179.84;5027175;28;20476;-47
2023/06/26 11:17:38;;;;;;;5.00;1.02;;;;;;;20.40;56.02;101168.66;5027138;28;20049;-43
2023/06/26 11:20:09;;;;;;;3.75;1.00;;;;;;;20.41;56.01;101170.25;5031202;28;20034;-43
2023/06/26 11:22:41;;;;;;;4.53;0.77;;;;;;;20.48;55.74;101164.63;5030312;28;20049;-45
2023/06/26 11:25:09;;;;;;;4.00;1.35;;;;;;;20.56;55.88;101177.47;5013463;28;20282;-43
2023/06/26 11:27:39;;;;;;;2.63;0.75;;;;;;;20.60;55.69;101181.09;5005115;28;20046;-43
2023/06/26 11:30:09;;;;;;;2.15;0.65;;;;;;;20.46;55.83;101186.75;5013465;28;20083;-43
2023/06/26 11:32:39;;;;;;;5.10;1.00;;;;;;;20.30;56.10;101187.13;5013378;28;20549;-45
2023/06/26 11:35:07;;;;;;;8.68;1.75;;;;;;;20.36;55.98;101193.16;5013367;28;20080;-43
2023/06/26 11:37:34;;;;;;;3.17;0.80;;;;;;;20.48;55.71;101204.00;5030353;28;20077;-44
2023/06/26 11:40:16;;;;;;;2.50;0.82;;;;;;;20.45;55.23;101204.81;5029928;28;20076;-42
2023/06/26 11:42:44;;;;;;;4.00;0.77;;;;;;;20.47;54.92;101196.75;5030663;28;20156;-44
2023/06/26 11:45:10;;;;;;;5.88;1.27;;;;;;;20.48;54.89;101204.81;5031258;28;20454;-45
2023/06/26 11:47:38;;;;;;;1.73;0.80;;;;;;;20.47;54.07;101202.38;5030019;28;20053;-43
2023/06/26 11:50:05;;;;;;;2.88;0.95;;;;;;;20.46;53.87;101195.19;5029836;28;20052;-44
2023/06/26 11:52:33;;;;;;;3.85;0.85;;;;;;;20.48;53.66;101202.00;5029223;28;20080;-43
2023/06/26 11:55:00;;;;;;;4.45;0.80;;;;;;;20.62;54.00;101199.16;5019294;28;20111;-45
2023/06/26 11:57:26;;;;;;;4.72;0.82;;;;;;;20.85;53.39;101209.22;5030967;28;20042;-43
2023/06/26 11:59:53;;;;;;;4.72;1.48;;;;;;;21.02;53.60;101205.59;5030175;28;20049;-43
2023/06/26 12:02:21;;;;;;;6.70;1.00;;;;;;;21.14;53.08;101191.91;5029650;28;20053;-43
2023/06/26 12:04:48;;;;;;;4.75;1.48;;;;;;;21.07;52.78;101188.31;5030643;28;20091;-44
2023/06/26 12:07:17;;;;;;;4.88;0.75;;;;;;;21.02;52.85;101195.09;5011834;28;20042;-45
2023/06/26 12:09:47;;;;;;;1.88;0.65;;;;;;;21.04;53.29;101189.88;5031845;28;20048;-43
2023/06/26 12:12:16;;;;;;;3.05;0.90;;;;;;;21.20;53.09;101195.91;5033776;28;20132;-44
2023/06/26 12:14:43;;;;;;;4.13;1.00;;;;;;;21.31;52.92;101206.34;5030098;28;20072;-43
2023/06/26 12:17:12;;;;;;;2.83;0.82;;;;;;;21.37;52.97;101208.31;5031535;28;20041;-44
2023/06/26 12:19:43;;;;;;;5.47;2.00;;;;;;;21.37;53.04;101190.59;5034633;28;20461;-47
2023/06/26 12:22:11;;;;;;;1.75;0.80;;;;;;;21.33;52.36;101199.09;5033562;28;20104;-43
2023/06/26 12:24:38;;;;;;;2.58;0.50;;;;;;;21.25;52.41;101194.69;5028853;28;20049;-44
2023/06/26 12:27:14;;;;;;;2.47;0.65;;;;;;;21.21;51.00;101191.88;5032875;28;20068;-45
2023/06/26 12:29:53;;;;;;;2.83;0.60;;;;;;;21.11;50.60;101181.44;5033211;28;20517;-43
2023/06/26 12:32:23;;;;;;;2.75;0.65;;;;;;;21.17;50.51;101185.47;5028214;28;20050;-45
2023/06/26 12:34:50;;;;;;;3.38;0.55;;;;;;;21.29;50.63;101198.28;5029242;28;20108;-44
2023/06/26 12:37:17;;;;;;;6.45;0.70;;;;;;;21.40;50.14;101192.63;5033072;28;20045;-52
2023/06/26 12:39:48;;;;;;;2.28;0.52;;;;;;;21.54;49.79;101192.56;5029629;28;20080;-46
2023/06/26 12:42:19;;;;;;;6.67;1.10;;;;;;;21.71;49.55;101202.97;5031612;28;20049;-46
2023/06/26 12:44:47;;;;;;;;;;;;;;;21.68;49.42;101189.69;5016105;28;20299;-44
2023/06/26 12:47:18;;;;;;;4.32;1.05;;;;;;;21.71;49.26;101177.59;5033994;28;19925;-44
2023/06/26 12:49:49;;;;;;;2.42;1.85;;;;;;;21.95;49.50;101193.56;5029805;28;20053;-43
2023/06/26 12:52:18;;;;;;;1.55;0.50;;;;;;;22.14;48.64;101192.25;5024798;28;20046;-42
2023/06/26 12:54:47;;;;;;;4.55;0.98;;;;;;;22.29;47.65;101193.78;5015747;28;20072;-43
2023/06/26 12:57:16;;;;;;;1.83;0.50;;;;;;;22.32;47.45;101202.19;5033686;28;20041;-43
2023/06/26 12:59:43;;;;;;;4.03;1.50;;;;;;;22.14;46.95;101203.53;5033260;28;20103;-43
2023/06/26 13:02:13;;;;;;;4.50;0.85;;;;;;;22.10;47.59;101185.84;5031625;28;20041;-43
2023/06/26 13:04:41;;;;;;;4.38;0.93;;;;;;;22.31;47.24;101197.78;5032583;28;20045;-44
2023/06/26 13:07:08;;;;;;;3.42;0.50;;;;;;;22.26;47.77;101188.97;5033532;28;20041;-44
2023/06/26 13:09:36;;;;;;;3.13;0.73;;;;;;;22.14;47.79;101193.06;5032263;28;20085;-42
2023/06/26 13:12:05;;;;;;;2.85;0.77;;;;;;;22.25;47.50;101188.16;5032347;28;20045;-44
2023/06/26 13:14:32;;;;;;;1.90;0.80;;;;;;;22.42;47.59;101190.03;5030515;28;20054;-43
2023/06/26 13:17:00;;;;;;;4.60;1.10;;;;;;;22.51;47.05;101188.75;5032715;28;20396;-43
2023/06/26 13:19:28;;;;;;;2.22;0.60;;;;;;;22.52;46.68;101191.16;5033309;28;20057;-43
2023/06/26 13:21:55;;;;;;;6.10;1.48;;;;;;;22.45;46.35;101192.00;5031985;28;20135;-49
2023/06/26 13:24:21;;;;;;;5.45;1.00;;;;;;;22.35;46.99;101189.28;5027460;28;20053;-45
2023/06/26 13:26:48;;;;;;;0.55;0.50;;;;;;;22.36;46.95;101196.53;5033207;28;20037;-43
2023/06/26 13:29:15;;;;;;;3.28;0.68;;;;;;;22.34;47.23;101194.16;5033245;28;20865;-43
2023/06/26 13:31:42;;;;;;;3.88;1.10;;;;;;;22.36;47.79;101191.69;5032943;28;20479;-43
2023/06/26 13:34:20;;;;;;;7.13;1.00;;;;;;;22.50;47.86;101189.97;5026886;28;20388;-43
2023/06/26 13:36:48;;;;;;;6.40;1.13;;;;;;;22.40;47.88;101202.94;5015487;28;20045;-42
2023/06/26 13:39:14;;;;;;;6.18;0.93;;;;;;;22.07;48.68;101198.75;5032662;28;20041;-43
2023/06/26 13:41:41;;;;;;;5.15;0.98;;;;;;;21.82;49.46;101203.69;5032709;28;20040;-43
2023/06/26 13:44:08;;;;;;;7.47;1.23;;;;;;;21.58;49.89;101210.25;5032069;28;20069;-42
2023/06/26 13:46:46;;;;;;;3.67;1.15;;;;;;;21.45;50.40;101206.28;5032736;28;20041;-43
2023/06/26 13:49:13;;;;;;;4.45;1.40;;;;;;;21.44;50.49;101210.31;5032614;28;20045;-44
2023/06/26 13:51:45;;;;;;;8.88;1.90;;;;;;;21.46;50.52;101213.53;5033168;28;20099;-43
2023/06/26 13:54:14;;;;;;;3.85;0.90;;;;;;;21.50;50.27;101209.47;5031984;28;20258;-42
2023/06/26 13:56:41;;;;;;;5.15;0.98;;;;;;;21.61;50.46;101209.44;5032656;28;20128;-48
2023/06/26 13:59:08;;;;;;;6.22;1.15;;;;;;;21.87;49.93;101211.75;5032533;28;20041;-44
2023/06/26 14:01:34;;;;;;;3.15;0.90;;;;;;;22.28;49.86;101209.91;5032310;28;20502;-45
2023/06/26 14:04:01;;;;;;;2.35;0.90;;;;;;;22.56;49.84;101208.09;5031732;28;20076;-46
2023/06/26 14:06:29;;;;;;;5.72;1.10;;;;;;;22.64;49.62;101209.63;5032156;28;20053;-46
2023/06/26 14:08:56;;;;;;;8.13;2.33;;;;;;;22.72;49.25;101216.81;5032250;28;20041;-44
2023/06/26 14:11:23;;;;;;;5.55;1.13;;;;;;;22.81;49.18;101215.13;5032311;28;20128;-44
2023/06/26 14:13:49;;;;;;;6.05;1.52;;;;;;;23.06;48.99;101205.63;5031472;28;20042;-44
2023/06/26 14:16:18;;;;;;;4.28;1.08;;;;;;;23.35;48.62;101212.56;5024926;28;20132;-44
2023/06/26 14:18:45;;;;;;;7.22;0.80;;;;;;;23.77;47.81;101214.09;5032019;28;20050;-48
2023/06/26 14:21:11;;;;;;;5.05;0.80;;;;;;;23.98;47.49;101208.16;5031235;28;20049;-43
2023/06/26 14:23:38;;;;;;;7.45;1.42;;;;;;;24.13;46.93;101226.53;5030421;28;20041;-43
2023/06/26 14:26:05;;;;;;;3.10;1.10;;;;;;;24.12;46.65;101210.78;5032156;28;20058;-42
2023/06/26 14:28:32;;;;;;;2.83;1.02;;;;;;;24.18;47.15;101209.09;5030733;28;20045;-39
2023/06/26 14:30:58;;;;;;;3.03;1.00;;;;;;;24.19;46.86;101213.53;5032091;28;20045;-43